Impacts TAF Board
For situational awareness. Not to be used for flight planning purposes.
IDs:

KFMN - Farmington/Four Corn, NM, US

Issued at 0529 UTC 30 Oct 2020
Updated at 0735 UTC 30 Oct 2020
Potential Impact None Slight Moderate High
Time<<31/08Z 31/09Z 31/10Z 31/11Z 31/12Z 31/13Z 31/14Z 31/15Z 31/16Z 31/17Z 31/18Z 31/19Z 31/20Z
Type
VIS
CIG
Cover
FltCat
WX
WDir
WSpd
WGst
Raw TAF
KFMN 300529Z 3006/3106 07007KT P6SM FEW250
  FM301900 26007KT P6SM SCT250
  FM310200 04006KT P6SM SCT250


METAR Board
Radar Display
Forecast Discussion
For situational awareness. Not to be used for flight planning purposes.